HappyWetter - St.Margarethen im Burgenland
Wetterdaten: aktuell Dienstag, 18.02.2020 04:39
Datum Zeit Temp. A. Feuchte A. Luftdruck Regen Wind Richtung Richtung Sonnenschein ET Solar Taupunkt Windchill Windben Empfang
18.02.2020 04:39 10,9 C 69 % 1021,1 hPa 0,0 l/m 19,3 km/h (3 Bft) NW 307 0 min 0,077 mm 0 W/m 5,4 C 4,7 C 27,4 km/h (4 Bft) 100,00 %
18.02.2020 03:39 11,7 C 71 % 1020,8 hPa 0,0 l/m 15,7 km/h (3 Bft) N-NW 327 0 min 0,076 mm 0 W/m 6,6 C 6,9 C 24,1 km/h (4 Bft) 100,00 %
18.02.2020 02:41 12,1 C 70 % 1020,2 hPa 0,0 l/m 17,5 km/h (3 Bft) N-NW 336 0 min 0,051 mm 0 W/m 6,8 C 6,8 C 29,0 km/h (5 Bft) 100,00 %
18.02.2020 01:42 11,7 C 77 % 1019,6 hPa 0,0 l/m 18,1 km/h (3 Bft) N-NW 344 0 min 0,025 mm 0 W/m 7,8 C 6,1 C 25,7 km/h (4 Bft) 100,00 %
18.02.2020 00:41 7,9 C 85 % 1019,3 hPa 0,0 l/m 3,1 km/h (1 Bft) NW 315 0 min 0,000 mm 0 W/m 5,5 C 7,9 C 4,8 km/h (1 Bft) 100,00 %
17.02.2020 23:42 7,1 C 83 % 1018,8 hPa 0,0 l/m 2,3 km/h (1 Bft) NO 34 0 min 0,025 mm 0 W/m 4,4 C 7,1 C 3,2 km/h (1 Bft) 100,00 %
17.02.2020 22:44 7,2 C 82 % 1018,2 hPa 0,0 l/m 3,8 km/h (1 Bft) W 279 0 min 0,001 mm 0 W/m 4,3 C 7,2 C 4,8 km/h (1 Bft) 100,00 %
17.02.2020 21:46 7,8 C 81 % 1017,7 hPa 0,0 l/m 3,4 km/h (1 Bft) O-NO 73 0 min 0,025 mm 0 W/m 4,7 C 7,8 C 4,8 km/h (1 Bft) 100,00 %
17.02.2020 20:46 8,2 C 78 % 1017,7 hPa 0,0 l/m 2,2 km/h (1 Bft) O-SO 105 0 min 0,001 mm 0 W/m 4,6 C 8,2 C 3,2 km/h (1 Bft) 96,00 %
17.02.2020 19:47 9,3 C 76 % 1018,0 hPa 0,0 l/m 0,9 km/h (0 Bft) N-NW 341 0 min 0,025 mm 0 W/m 5,3 C 9,3 C 1,6 km/h (1 Bft) 96,00 %
17.02.2020 18:49 10,2 C 74 % 1017,7 hPa 0,0 l/m 3,2 km/h (1 Bft) NW 321 0 min 0,025 mm 0 W/m 5,8 C 10,2 C 4,8 km/h (1 Bft) 100,00 %
17.02.2020 17:51 11,3 C 70 % 1017,5 hPa 0,0 l/m 5,5 km/h (1 Bft) N-NO 27 0 min 0,051 mm 0 W/m 6,0 C 11,3 C 9,7 km/h (2 Bft) 96,00 %
17.02.2020 16:53 12,3 C 64 % 1017,0 hPa 0,0 l/m 1,1 km/h (1 Bft) N 9 0 min 0,076 mm 21 W/m 5,7 C 12,3 C 3,2 km/h (1 Bft) 100,00 %
17.02.2020 15:54 12,7 C 62 % 1017,2 hPa 0,0 l/m 5,6 km/h (1 Bft) O-NO 63 13 min 0,127 mm 74 W/m 5,6 C 12,7 C 8,0 km/h (2 Bft) 100,00 %
17.02.2020 14:56 12,7 C 62 % 1017,3 hPa 0,0 l/m 11,4 km/h (2 Bft) O-NO 71 35 min 0,229 mm 118 W/m 5,6 C 9,9 C 16,1 km/h (3 Bft) 100,00 %
17.02.2020 13:58 12,3 C 64 % 1018,2 hPa 0,0 l/m 11,6 km/h (2 Bft) O 89 60 min 0,229 mm 336 W/m 5,7 C 9,3 C 16,1 km/h (3 Bft) 100,00 %
17.02.2020 13:00 10,8 C 68 % 1018,6 hPa 0,0 l/m 7,7 km/h (2 Bft) O-SO 118 60 min 0,203 mm 506 W/m 5,1 C 9,9 C 11,3 km/h (2 Bft) 100,00 %
17.02.2020 12:00 9,4 C 72 % 1019,8 hPa 0,0 l/m 8,1 km/h (2 Bft) O 89 60 min 0,101 mm 424 W/m 4,6 C 8,2 C 11,3 km/h (2 Bft) 100,00 %
17.02.2020 11:02 7,7 C 79 % 1020,0 hPa 0,0 l/m 4,7 km/h (1 Bft) O-SO 118 44 min 0,101 mm 364 W/m 4,3 C 7,7 C 6,4 km/h (2 Bft) 100,00 %
17.02.2020 10:03 5,7 C 86 % 1020,1 hPa 0,0 l/m 3,0 km/h (1 Bft) N-NO 26 25 min 0,001 mm 258 W/m 3,5 C 5,7 C 6,4 km/h (2 Bft) 100,00 %
17.02.2020 09:04 3,8 C 90 % 1020,0 hPa 0,0 l/m 0,4 km/h (0 Bft) W 272 0 min 0,050 mm 121 W/m 2,3 C 3,8 C 1,6 km/h (1 Bft) 95,83 %
17.02.2020 08:05 0,9 C 88 % 1019,8 hPa 0,0 l/m 0,1 km/h (0 Bft) O-NO 61 0 min 0,000 mm 70 W/m -0,9 C 0,9 C 1,6 km/h (1 Bft) 91,67 %
17.02.2020 07:07 1,1 C 85 % 1019,3 hPa 0,0 l/m 0,0 km/h (0 Bft) O-NO 61 0 min 0,000 mm 5 W/m -1,1 C 1,1 C 0,0 km/h (0 Bft) 100,00 %
17.02.2020 06:09 2,4 C 84 % 1019,3 hPa 0,0 l/m 2,3 km/h (1 Bft) N 355 0 min 0,000 mm 0 W/m -0,0 C 2,4 C 3,2 km/h (1 Bft) 100,00 %
17.02.2020 05:11 4,1 C 85 % 1018,6 hPa 0,0 l/m 3,1 km/h (1 Bft) O-NO 63 0 min 0,000 mm 0 W/m 1,8 C 4,1 C 6,4 km/h (2 Bft) 100,00 %
17.02.2020 05:00 4,2 C 85 % 1018,6 hPa 0,0 l/m 0,0 km/h (0 Bft) W 281 0 min 0,000 mm 0 W/m 1,9 C 4,2 C 0,0 km/h (0 Bft) 96,00 %
_ Min-Zeit 08:05 16:23 16:21 - 23:29 - - - - - 07:19 08:05 23:29 19:15
Minimum _ 0,9 C 62 % 1016,9 hPa - 0,0 km/h (0 Bft) - - - - - -1,3 C 0,9 C 0,0 km/h (0 Bft) 83,33 %
_ Max-Zeit 16:22 09:05 04:04 04:39 02:53 - - 12:18 14:00 13:07 01:38 15:27 02:53 04:39
Maximum _ 12,8 C 90 % 1021,2 hPa 0,0 l/m 33,4 km/h
W-SW (5 Bft)
- - 2 min 0,229 mm 548 W/m 7,9 C 12,8 C 48,3 km/h
NW (6 Bft)
100,00 %
Durchschnitt _ 8,1 C 77 % 1018,8 hPa #0,0 l/m 6,1 km/h (2 Bft) O-NO - #0 min. #0,229 mm 0 W/m 4,2 C 6,9 C 9,1 km/h (2 Bft) 98,87 %